createdAt,value
2023-04-01T00:01:56.097Z,96769.52
2023-04-01T00:04:23.777Z,96765.63
2023-04-01T00:06:51.334Z,96766.59
2023-04-01T00:09:19.021Z,96764.27
2023-04-01T00:11:46.549Z,96760.05
2023-04-01T00:14:14.131Z,96754.69
2023-04-01T00:16:41.904Z,96752.31
2023-04-01T00:19:09.639Z,96750.58
2023-04-01T00:21:37.329Z,96750.08
2023-04-01T00:24:04.949Z,96750.75
2023-04-01T00:26:32.511Z,96749.08
2023-04-01T00:29:00.150Z,96744.08
2023-04-01T00:31:28.015Z,96741.89
2023-04-01T00:33:55.609Z,96741.59
2023-04-01T00:36:23.421Z,96742.63
2023-04-01T00:38:51.130Z,96745.42
2023-04-01T00:41:20.195Z,96745.59
2023-04-01T00:43:50.437Z,96749.98
2023-04-01T00:46:18.233Z,96743.64
2023-04-01T00:48:53.349Z,96743.04
2023-04-01T00:51:28.684Z,96742.09
2023-04-01T00:53:58.842Z,96739.73
2023-04-01T00:56:49.235Z,96738.50
2023-04-01T00:59:29.741Z,96741.45
2023-04-01T01:01:57.577Z,96741.75
2023-04-01T01:04:30.854Z,96739.91
2023-04-01T01:07:05.078Z,96737.84
2023-04-01T01:09:35.522Z,96739.81
2023-04-01T01:12:21.456Z,96745.35
2023-04-01T01:15:17.501Z,96748.48
2023-04-01T01:18:18.897Z,96747.53
2023-04-01T01:21:19.219Z,96746.67
2023-04-01T01:24:10.274Z,96743.76
2023-04-01T01:26:40.620Z,96746.14
2023-04-01T01:29:45.191Z,96747.63
2023-04-01T01:32:31.270Z,96746.70
2023-04-01T01:35:38.352Z,96745.91
2023-04-01T01:38:14.509Z,96741.88
2023-04-01T01:40:43.417Z,96737.33
2023-04-01T01:43:15.862Z,96738.63
2023-04-01T01:45:52.586Z,96737.09
2023-04-01T01:48:20.237Z,96740.64
2023-04-01T01:50:49.469Z,96737.14
2023-04-01T01:53:17.111Z,96734.60
2023-04-01T01:55:46.914Z,96734.26
2023-04-01T01:58:25.951Z,96732.99
2023-04-01T02:00:57.078Z,96736.02
2023-04-01T02:03:27.782Z,96738.02
2023-04-01T02:05:59.976Z,96740.66
2023-04-01T02:08:35.031Z,96740.95
2023-04-01T02:11:06.769Z,96743.80
2023-04-01T02:13:57.242Z,96743.70
2023-04-01T02:16:29.814Z,96748.17
2023-04-01T02:18:59.469Z,96754.16
2023-04-01T02:21:31.875Z,96757.23
2023-04-01T02:24:03.054Z,96760.81
2023-04-01T02:26:31.256Z,96759.73
2023-04-01T02:29:02.019Z,96757.98
2023-04-01T02:31:29.999Z,96765.61
2023-04-01T02:33:58.596Z,96761.27
2023-04-01T02:36:26.332Z,96765.30
2023-04-01T02:38:56.794Z,96762.16
2023-04-01T02:41:24.368Z,96761.70
2023-04-01T02:43:51.954Z,96766.20
2023-04-01T02:46:19.570Z,96762.77
2023-04-01T02:48:47.228Z,96767.61
2023-04-01T02:51:16.143Z,96772.42
2023-04-01T02:53:45.029Z,96778.77
2023-04-01T02:56:12.583Z,96780.17
2023-04-01T02:58:40.334Z,96781.52
2023-04-01T03:01:07.983Z,96781.36
2023-04-01T03:03:35.566Z,96783.45
2023-04-01T03:06:08.582Z,96784.35
2023-04-01T03:08:36.369Z,96780.69
2023-04-01T03:11:04.708Z,96786.01
2023-04-01T03:13:32.902Z,96786.88
2023-04-01T03:16:01.549Z,96783.54
2023-04-01T03:18:29.623Z,96781.70
2023-04-01T03:20:57.301Z,96784.95
2023-04-01T03:23:24.868Z,96779.55
2023-04-01T03:25:52.437Z,96778.06
2023-04-01T03:28:19.978Z,96782.36
2023-04-01T03:30:47.536Z,96781.24
2023-04-01T03:33:15.125Z,96784.50
2023-04-01T03:35:42.685Z,96789.23
2023-04-01T03:38:10.230Z,96786.01
2023-04-01T03:40:37.836Z,96787.36
2023-04-01T03:43:05.513Z,96780.81
2023-04-01T03:45:33.415Z,96777.45
2023-04-01T03:48:01.336Z,96775.77
2023-04-01T03:50:30.473Z,96777.42
2023-04-01T03:52:58.885Z,96779.95
2023-04-01T03:55:26.455Z,96777.95
2023-04-01T03:57:54.102Z,96777.14
2023-04-01T04:00:21.671Z,96783.41
2023-04-01T04:02:49.373Z,96785.27
2023-04-01T04:05:17.008Z,96785.70
2023-04-01T04:07:44.559Z,96792.77
2023-04-01T04:10:12.171Z,96790.17
2023-04-01T04:12:39.801Z,96791.63
2023-04-01T04:15:08.995Z,96789.05
2023-04-01T04:17:36.590Z,96789.67
2023-04-01T04:20:04.816Z,96782.34
2023-04-01T04:22:32.542Z,96781.16
2023-04-01T04:25:00.104Z,96778.96
2023-04-01T04:27:27.651Z,96776.46
2023-04-01T04:29:55.202Z,96778.02
2023-04-01T04:32:22.779Z,96780.61
2023-04-01T04:34:50.331Z,96780.16
2023-04-01T04:37:17.967Z,96782.15
2023-04-01T04:39:45.517Z,96781.25
2023-04-01T04:42:13.129Z,96779.05
2023-04-01T04:44:40.683Z,96781.19
2023-04-01T04:47:08.366Z,96782.28
2023-04-01T04:49:35.986Z,96780.06
2023-04-01T04:52:03.581Z,96784.18
2023-04-01T04:54:31.224Z,96784.58
2023-04-01T04:56:58.953Z,96784.05
2023-04-01T04:59:26.579Z,96783.15
2023-04-01T05:01:54.142Z,96789.63
2023-04-01T05:04:21.709Z,96788.20
2023-04-01T05:06:49.329Z,96793.76
2023-04-01T05:09:16.899Z,96793.61
2023-04-01T05:11:44.493Z,96793.55
2023-04-01T05:14:16.819Z,96796.84
2023-04-01T05:16:44.683Z,96796.80
2023-04-01T05:19:12.284Z,96797.27
2023-04-01T05:21:39.860Z,96798.30
2023-04-01T05:24:10.608Z,96796.66
2023-04-01T05:26:38.206Z,96800.11
2023-04-01T05:29:05.816Z,96796.66
2023-04-01T05:31:33.596Z,96797.48
2023-04-01T05:34:01.232Z,96801.23
2023-04-01T05:36:28.839Z,96797.17
2023-04-01T05:38:56.758Z,96804.23
2023-04-01T05:41:24.350Z,96799.55
2023-04-01T05:43:51.906Z,96804.73
2023-04-01T05:46:19.471Z,96802.05
2023-04-01T05:48:47.101Z,96796.17
2023-04-01T05:51:15.920Z,96800.08
2023-04-01T05:53:43.913Z,96798.56
2023-04-01T05:56:11.564Z,96797.67
2023-04-01T05:58:39.582Z,96800.45
2023-04-01T06:01:13.937Z,96801.67
2023-04-01T06:03:43.871Z,96805.13
2023-04-01T06:06:16.789Z,96807.48
2023-04-01T06:08:44.456Z,96807.18
2023-04-01T06:11:17.903Z,96808.46
2023-04-01T06:14:24.410Z,96809.54
2023-04-01T06:17:03.953Z,96813.23
2023-04-01T06:20:22.591Z,96812.99
2023-04-01T06:23:26.810Z,96815.39
2023-04-01T06:26:00.152Z,96816.50
2023-04-01T06:28:36.691Z,96820.30
2023-04-01T06:31:35.587Z,96822.50
2023-04-01T06:34:21.776Z,96820.09
2023-04-01T06:37:10.705Z,96820.51
2023-04-01T06:40:05.477Z,96825.45
2023-04-01T06:42:59.978Z,96825.94
2023-04-01T06:46:05.774Z,96827.49
2023-04-01T06:48:51.663Z,96829.25
2023-04-01T06:51:37.377Z,96828.79
2023-04-01T06:54:12.932Z,96821.96
2023-04-01T06:56:43.511Z,96816.27
2023-04-01T06:59:16.373Z,96817.61
2023-04-01T07:01:56.669Z,96819.31
2023-04-01T07:04:27.028Z,96823.08
2023-04-01T07:07:06.802Z,96822.78
2023-04-01T07:09:39.800Z,96825.36
2023-04-01T07:12:16.457Z,96829.05
2023-04-01T07:14:46.154Z,96829.71
2023-04-01T07:17:21.626Z,96832.59
2023-04-01T07:20:08.360Z,96833.60
2023-04-01T07:22:52.458Z,96832.77
2023-04-01T07:25:35.874Z,96831.10
2023-04-01T07:28:07.402Z,96828.02
2023-04-01T07:30:49.358Z,96830.26
2023-04-01T07:33:59.476Z,96834.90
2023-04-01T07:36:33.206Z,96833.50
2023-04-01T07:39:24.956Z,96838.27
2023-04-01T07:42:16.758Z,96840.84
2023-04-01T07:45:11.923Z,96844.08
2023-04-01T07:47:57.926Z,96844.67
2023-04-01T07:50:44.935Z,96845.14
2023-04-01T07:53:37.254Z,96846.59
2023-04-01T07:56:13.082Z,96844.27
2023-04-01T07:59:06.778Z,96850.14
2023-04-01T08:01:52.214Z,96851.96
2023-04-01T08:04:31.542Z,96852.53
2023-04-01T08:07:10.454Z,96854.45
2023-04-01T08:10:17.070Z,96856.48
2023-04-01T08:13:09.468Z,96858.04
2023-04-01T08:15:49.367Z,96862.43
2023-04-01T08:18:22.756Z,96869.77
2023-04-01T08:21:00.848Z,96873.44
2023-04-01T08:23:33.595Z,96872.05
2023-04-01T08:26:28.786Z,96870.06
2023-04-01T08:29:16.807Z,96872.09
2023-04-01T08:32:04.253Z,96871.27
2023-04-01T08:34:41.379Z,96875.34
2023-04-01T08:37:24.508Z,96873.63
2023-04-01T08:39:59.809Z,96866.59
2023-04-01T08:42:49.341Z,96867.78
2023-04-01T08:45:26.952Z,96864.96
2023-04-01T08:48:13.428Z,96867.63
2023-04-01T08:50:50.029Z,96867.41
2023-04-01T08:53:48.559Z,96867.30
2023-04-01T08:56:21.319Z,96868.08
2023-04-01T08:59:10.657Z,96869.67
2023-04-01T09:02:03.906Z,96862.14
2023-04-01T09:05:19.487Z,96868.86
2023-04-01T09:08:09.256Z,96873.45
2023-04-01T09:10:58.168Z,96873.38
2023-04-01T09:13:59.776Z,96879.27
2023-04-01T09:17:05.061Z,96878.56
2023-04-01T09:19:32.546Z,96875.63
2023-04-01T09:22:31.261Z,96874.55
2023-04-01T09:25:20.484Z,96872.90
2023-04-01T09:27:58.634Z,96873.30
2023-04-01T09:30:44.587Z,96873.24
2023-04-01T09:33:36.898Z,96869.77
2023-04-01T09:36:12.442Z,96874.39
2023-04-01T09:38:59.711Z,96873.27
2023-04-01T09:41:31.772Z,96875.54
2023-04-01T09:44:26.298Z,96874.80
2023-04-01T09:47:21.692Z,96871.52
2023-04-01T09:50:21.350Z,96871.42
2023-04-01T09:53:14.641Z,96873.11
2023-04-01T09:55:44.892Z,96874.84
2023-04-01T09:58:47.445Z,96872.88
2023-04-01T10:01:23.768Z,96871.56
2023-04-01T10:04:32.713Z,96873.94
2023-04-01T10:07:30.953Z,96883.09
2023-04-01T10:10:23.256Z,96884.86
2023-04-01T10:13:17.544Z,96885.71
2023-04-01T10:16:23.885Z,96878.55
2023-04-01T10:19:06.181Z,96879.12
2023-04-01T10:21:58.786Z,96879.17
2023-04-01T10:24:57.908Z,96876.66
2023-04-01T10:27:35.576Z,96872.33
2023-04-01T10:31:05.356Z,96871.36
2023-04-01T10:34:10.497Z,96879.34
2023-04-01T10:36:54.410Z,96877.70
2023-04-01T10:39:24.874Z,96878.05
2023-04-01T10:41:58.313Z,96877.02
2023-04-01T10:44:36.204Z,96881.19
2023-04-01T10:47:38.237Z,96874.54
2023-04-01T10:50:30.082Z,96877.56
2023-04-01T10:53:10.080Z,96883.02
2023-04-01T10:55:48.951Z,96878.52
2023-04-01T10:58:28.341Z,96888.52
2023-04-01T11:01:21.378Z,96894.80
2023-04-01T11:03:57.959Z,96893.58
2023-04-01T11:07:00.556Z,96887.84
2023-04-01T11:09:40.174Z,96889.71
2023-04-01T11:12:32.999Z,96891.96
2023-04-01T11:15:15.807Z,96892.90
2023-04-01T11:17:50.155Z,96890.02
2023-04-01T11:21:15.093Z,96893.26
2023-04-01T11:24:04.319Z,96889.76
2023-04-01T11:27:00.467Z,96888.08
2023-04-01T11:29:56.710Z,96888.60
2023-04-01T11:32:48.437Z,96887.95
2023-04-01T11:35:53.180Z,96884.73
2023-04-01T11:38:27.757Z,96885.02
2023-04-01T11:41:25.159Z,96885.47
2023-04-01T11:44:17.735Z,96886.46
2023-04-01T11:47:24.871Z,96880.10
2023-04-01T11:50:16.018Z,96874.62
2023-04-01T11:52:49.498Z,96880.89
2023-04-01T11:55:54.407Z,96877.17
2023-04-01T11:58:42.948Z,96879.45
2023-04-01T12:01:32.074Z,96881.23
2023-04-01T12:04:24.913Z,96884.14
2023-04-01T12:07:40.968Z,96877.48
2023-04-01T12:10:41.161Z,96877.13
2023-04-01T12:13:24.076Z,96871.23
2023-04-01T12:16:14.958Z,96875.15
2023-04-01T12:18:47.644Z,96877.77
2023-04-01T12:21:28.384Z,96883.11
2023-04-01T12:24:14.329Z,96894.58
2023-04-01T12:27:03.206Z,96891.60
2023-04-01T12:29:49.190Z,96897.83
2023-04-01T12:32:38.630Z,96894.19
2023-04-01T12:35:18.078Z,96899.86
2023-04-01T12:38:09.304Z,96900.73
2023-04-01T12:40:48.657Z,96904.10
2023-04-01T12:43:19.180Z,96905.55
2023-04-01T12:46:02.368Z,96901.23
2023-04-01T12:48:55.996Z,96898.67
2023-04-01T12:51:49.636Z,96898.98
2023-04-01T12:54:52.432Z,96897.27
2023-04-01T12:57:57.300Z,96900.58
2023-04-01T13:00:24.845Z,96898.95
2023-04-01T13:03:29.950Z,96897.90
2023-04-01T13:06:25.588Z,96905.23
2023-04-01T13:09:20.806Z,96903.55
2023-04-01T13:11:55.456Z,96903.35
2023-04-01T13:14:37.839Z,96901.09
2023-04-01T13:17:36.464Z,96902.16
2023-04-01T13:20:10.015Z,96912.26
2023-04-01T13:22:46.646Z,96908.13
2023-04-01T13:25:31.102Z,96909.16
2023-04-01T13:28:18.592Z,96910.81
2023-04-01T13:30:54.463Z,96908.25
2023-04-01T13:33:46.608Z,96913.34
2023-04-01T13:36:48.103Z,96917.26
2023-04-01T13:39:36.774Z,96916.73
2023-04-01T13:42:28.011Z,96920.36
2023-04-01T13:45:03.312Z,96918.52
2023-04-01T13:48:08.927Z,96919.63
2023-04-01T13:50:39.540Z,96922.02
2023-04-01T13:53:28.554Z,96922.67
2023-04-01T13:56:33.814Z,96921.48
2023-04-01T13:59:22.887Z,96919.05
2023-04-01T14:01:50.419Z,96922.09
2023-04-01T14:04:42.720Z,96928.09
2023-04-01T14:07:33.713Z,96934.95
2023-04-01T14:10:19.897Z,96945.96
2023-04-01T14:12:52.913Z,96954.80
2023-04-01T14:15:20.491Z,96953.42
2023-04-01T14:18:09.557Z,96951.31
2023-04-01T14:20:50.453Z,96952.92
2023-04-01T14:23:39.317Z,96958.05
2023-04-01T14:26:18.907Z,96959.31
2023-04-01T14:29:02.604Z,96956.73
2023-04-01T14:31:44.019Z,96953.79
2023-04-01T14:34:41.482Z,96956.19
2023-04-01T14:37:33.279Z,96955.69
2023-04-01T14:40:13.032Z,96956.69
2023-04-01T14:43:13.106Z,96959.80
2023-04-01T14:46:18.659Z,96961.44
2023-04-01T14:49:00.627Z,96965.65
2023-04-01T14:51:41.908Z,96969.58
2023-04-01T14:54:12.225Z,96968.67
2023-04-01T14:56:44.016Z,96972.23
2023-04-01T14:59:18.457Z,96970.83
2023-04-01T15:02:04.557Z,96977.38
2023-04-01T15:04:53.229Z,96981.48
2023-04-01T15:07:57.878Z,96974.33
2023-04-01T15:10:46.829Z,96982.04
2023-04-01T15:13:29.890Z,96985.11
2023-04-01T15:16:15.752Z,96989.73
2023-04-01T15:19:10.414Z,96989.25
2023-04-01T15:21:40.620Z,96988.58
2023-04-01T15:24:12.952Z,96991.02
2023-04-01T15:26:47.787Z,96991.08
2023-04-01T15:29:33.851Z,96993.30
2023-04-01T15:32:29.122Z,96994.59
2023-04-01T15:35:01.996Z,96991.92
2023-04-01T15:37:38.127Z,96998.70
2023-04-01T15:40:44.138Z,96999.82
2023-04-01T15:43:50.030Z,97003.49
2023-04-01T15:46:49.681Z,97010.94
2023-04-01T15:49:44.287Z,97011.17
2023-04-01T15:52:43.774Z,97015.27
2023-04-01T15:55:33.112Z,97015.63
2023-04-01T15:58:30.482Z,97013.13
2023-04-01T16:01:26.057Z,97013.98
2023-04-01T16:04:15.377Z,97014.75
2023-04-01T16:07:01.428Z,97016.52
2023-04-01T16:09:51.723Z,97014.54
2023-04-01T16:12:38.890Z,97016.11
2023-04-01T16:15:21.577Z,97019.95
2023-04-01T16:18:04.052Z,97023.44
2023-04-01T16:20:50.849Z,97020.33
2023-04-01T16:23:37.760Z,97023.29
2023-04-01T16:26:24.961Z,97030.49
2023-04-01T16:28:59.122Z,97025.94
2023-04-01T16:31:26.666Z,97027.61
2023-04-01T16:34:07.564Z,97030.23
2023-04-01T16:36:42.811Z,97034.21
2023-04-01T16:39:42.548Z,97043.91
2023-04-01T16:42:44.303Z,97047.55
2023-04-01T16:45:29.854Z,97050.98
2023-04-01T16:48:07.127Z,97056.71
2023-04-01T16:51:00.008Z,97060.26
2023-04-01T16:53:46.365Z,97059.98
2023-04-01T16:56:25.769Z,97063.41
2023-04-01T16:59:08.515Z,97070.09
2023-04-01T17:01:56.541Z,97075.69
2023-04-01T17:04:35.214Z,97081.12
2023-04-01T17:07:27.484Z,97084.94
2023-04-01T17:10:16.006Z,97084.13
2023-04-01T17:12:52.590Z,97095.39
2023-04-01T17:15:33.417Z,97095.64
2023-04-01T17:18:21.119Z,97099.65
2023-04-01T17:21:01.743Z,97103.14
2023-04-01T17:24:17.812Z,97105.80
2023-04-01T17:26:52.259Z,97114.51
2023-04-01T17:29:40.478Z,97116.38
2023-04-01T17:32:12.023Z,97119.98
2023-04-01T17:34:59.152Z,97118.98
2023-04-01T17:37:26.670Z,97119.77
2023-04-01T17:40:18.781Z,97118.83
2023-04-01T17:42:57.719Z,97122.36
2023-04-01T17:45:34.359Z,97125.31
2023-04-01T17:48:39.378Z,97124.73
2023-04-01T17:51:22.448Z,97128.61
2023-04-01T17:53:57.963Z,97130.77
2023-04-01T17:56:53.674Z,97133.00
2023-04-01T17:59:39.930Z,97138.42
2023-04-01T18:02:39.716Z,97143.78
2023-04-01T18:05:33.550Z,97149.13
2023-04-01T18:08:03.779Z,97150.39
2023-04-01T18:10:58.923Z,97156.98
2023-04-01T18:13:49.033Z,97158.33
2023-04-01T18:16:47.722Z,97164.85
2023-04-01T18:19:26.339Z,97172.73
2023-04-01T18:22:16.872Z,97175.43
2023-04-01T18:24:55.175Z,97177.10
2023-04-01T18:27:29.277Z,97183.08
2023-04-01T18:30:19.694Z,97186.11
2023-04-01T18:33:06.414Z,97186.14
2023-04-01T18:35:46.040Z,97186.98
2023-04-01T18:38:17.845Z,97188.27
2023-04-01T18:41:11.897Z,97193.77
2023-04-01T18:44:12.591Z,97197.52
2023-04-01T18:47:00.700Z,97201.88
2023-04-01T18:49:31.411Z,97206.96
2023-04-01T18:52:10.451Z,97205.11
2023-04-01T18:55:19.002Z,97206.77
2023-04-01T18:57:50.979Z,97210.48
2023-04-01T19:00:27.306Z,97212.61
2023-04-01T19:03:26.816Z,97214.29
2023-04-01T19:05:59.843Z,97218.80
2023-04-01T19:08:34.436Z,97218.42
2023-04-01T19:11:13.940Z,97223.11
2023-04-01T19:13:57.396Z,97225.02
2023-04-01T19:16:57.772Z,97226.23
2023-04-01T19:19:50.208Z,97230.63
2023-04-01T19:22:26.254Z,97231.71
2023-04-01T19:25:24.243Z,97236.04
2023-04-01T19:27:54.726Z,97239.23
2023-04-01T19:30:52.135Z,97239.39
2023-04-01T19:33:45.554Z,97243.91
2023-04-01T19:36:48.612Z,97242.64
2023-04-01T19:39:30.949Z,97244.21
2023-04-01T19:42:08.452Z,97249.28
2023-04-01T19:44:38.704Z,97251.16
2023-04-01T19:47:15.122Z,97251.08
2023-04-01T19:50:13.176Z,97252.45
2023-04-01T19:52:42.134Z,97257.20
2023-04-01T19:55:31.699Z,97261.29
2023-04-01T19:58:14.808Z,97264.86
2023-04-01T20:00:47.601Z,97263.66
2023-04-01T20:03:34.039Z,97269.69
2023-04-01T20:06:14.055Z,97273.98
2023-04-01T20:09:19.084Z,97272.69
2023-04-01T20:12:02.138Z,97273.31
2023-04-01T20:14:38.489Z,97274.56
2023-04-01T20:17:33.725Z,97280.08
2023-04-01T20:20:15.510Z,97284.58
2023-04-01T20:22:45.892Z,97282.77
2023-04-01T20:25:18.869Z,97283.84
2023-04-01T20:27:58.535Z,97285.27
2023-04-01T20:30:31.822Z,97286.38
2023-04-01T20:33:26.437Z,97288.88
2023-04-01T20:36:17.234Z,97290.98
2023-04-01T20:39:12.802Z,97293.73
2023-04-01T20:41:52.589Z,97292.90
2023-04-01T20:44:56.158Z,97298.17
2023-04-01T20:47:45.391Z,97300.04
2023-04-01T20:50:51.758Z,97301.11
2023-04-01T20:53:43.688Z,97305.20
2023-04-01T20:56:15.356Z,97304.73
2023-04-01T20:59:24.392Z,97306.24
2023-04-01T21:02:09.832Z,97307.20
2023-04-01T21:05:15.364Z,97311.96
2023-04-01T21:07:47.290Z,97313.39
2023-04-01T21:10:42.964Z,97314.93
2023-04-01T21:13:51.566Z,97317.50
2023-04-01T21:16:40.683Z,97322.33
2023-04-01T21:19:25.384Z,97323.73
2023-04-01T21:22:22.545Z,97327.14
2023-04-01T21:25:22.167Z,97329.70
2023-04-01T21:27:49.729Z,97329.05
2023-04-01T21:30:28.454Z,97335.70
2023-04-01T21:32:59.083Z,97340.98
2023-04-01T21:35:54.851Z,97337.59
2023-04-01T21:38:22.368Z,97341.52
2023-04-01T21:41:15.164Z,97340.98
2023-04-01T21:44:07.742Z,97344.52
2023-04-01T21:46:54.023Z,97341.75
2023-04-01T21:49:33.692Z,97343.90
2023-04-01T21:52:45.582Z,97345.02
2023-04-01T21:55:48.448Z,97345.30
2023-04-01T21:58:34.575Z,97344.90
2023-04-01T22:01:36.212Z,97346.08
2023-04-01T22:04:28.536Z,97348.78
2023-04-01T22:07:11.319Z,97353.34
2023-04-01T22:10:05.006Z,97353.65
2023-04-01T22:12:46.644Z,97355.98
2023-04-01T22:15:22.877Z,97354.20
2023-04-01T22:17:57.267Z,97355.85
2023-04-01T22:20:51.342Z,97358.40
2023-04-01T22:23:30.922Z,97362.24
2023-04-01T22:26:14.175Z,97361.70
2023-04-01T22:28:52.664Z,97365.75
2023-04-01T22:31:28.548Z,97370.48
2023-04-01T22:34:29.274Z,97370.62
2023-04-01T22:37:05.803Z,97371.46
2023-04-01T22:40:10.888Z,97373.48
2023-04-01T22:42:45.128Z,97376.02
2023-04-01T22:45:37.131Z,97375.30
2023-04-01T22:48:26.346Z,97377.14
2023-04-01T22:51:26.136Z,97377.09
2023-04-01T22:54:13.773Z,97378.98
2023-04-01T22:56:47.121Z,97380.17
2023-04-01T22:59:27.804Z,97381.69
2023-04-01T23:02:00.860Z,97383.05
2023-04-01T23:04:43.089Z,97388.47
2023-04-01T23:07:47.876Z,97388.09
2023-04-01T23:10:30.901Z,97390.61
2023-04-01T23:13:02.712Z,97393.14
2023-04-01T23:15:31.126Z,97396.02
2023-04-01T23:18:10.098Z,97397.12
2023-04-01T23:21:00.144Z,97394.28
2023-04-01T23:23:40.387Z,97395.80
2023-04-01T23:26:24.566Z,97394.91
2023-04-01T23:28:55.059Z,97396.18
2023-04-01T23:31:36.658Z,97397.00
2023-04-01T23:34:13.425Z,97398.77
2023-04-01T23:36:49.928Z,97401.96
2023-04-01T23:39:39.140Z,97401.92
2023-04-01T23:42:14.294Z,97403.59
2023-04-01T23:44:43.193Z,97405.61
2023-04-01T23:47:17.464Z,97412.08
2023-04-01T23:50:01.730Z,97410.36
2023-04-01T23:52:42.687Z,97408.84
2023-04-01T23:55:25.966Z,97412.29
2023-04-01T23:58:24.134Z,97416.57
